Map

Track Data

SID SEASON NUMBER BASIN SUBBASIN NAME ISO_TIME NATURE LAT LON WMO_WIND WMO_PRES WMO_AGENCY TRACK_TYPE DIST2LAND LANDFALL IFLAG USA_AGENCY USA_ATCF_ID USA_LAT USA_LON USA_RECORD USA_STATUS USA_WIND USA_PRES USA_SSHS USA_R34_NE USA_R34_SE USA_R34_SW USA_R34_NW USA_R50_NE USA_R50_SE USA_R50_SW USA_R50_NW USA_R64_NE USA_R64_SE USA_R64_SW USA_R64_NW USA_POCI USA_ROCI USA_RMW USA_EYE TOKYO_LAT TOKYO_LON TOKYO_GRADE TOKYO_WIND TOKYO_PRES TOKYO_R50_DIR TOKYO_R50_LONG TOKYO_R50_SHORT TOKYO_R30_DIR TOKYO_R30_LONG TOKYO_R30_SHORT TOKYO_LAND CMA_LAT CMA_LON CMA_CAT CMA_WIND CMA_PRES HKO_LAT HKO_LON HKO_CAT HKO_WIND HKO_PRES NEWDELHI_LAT NEWDELHI_LON NEWDELHI_GRADE NEWDELHI_WIND NEWDELHI_PRES NEWDELHI_CI NEWDELHI_DP NEWDELHI_POCI REUNION_LAT REUNION_LON REUNION_TYPE REUNION_WIND REUNION_PRES REUNION_TNUM REUNION_CI REUNION_RMW REUNION_R34_NE REUNION_R34_SE REUNION_R34_SW REUNION_R34_NW REUNION_R50_NE REUNION_R50_SE REUNION_R50_SW REUNION_R50_NW REUNION_R64_NE REUNION_R64_SE REUNION_R64_SW REUNION_R64_NW BOM_LAT BOM_LON BOM_TYPE BOM_WIND BOM_PRES BOM_TNUM BOM_CI BOM_RMW BOM_R34_NE BOM_R34_SE BOM_R34_SW BOM_R34_NW BOM_R50_NE BOM_R50_SE BOM_R50_SW BOM_R50_NW BOM_R64_NE BOM_R64_SE BOM_R64_SW BOM_R64_NW BOM_ROCI BOM_POCI BOM_EYE BOM_POS_METHOD BOM_PRES_METHOD NADI_LAT NADI_LON NADI_CAT NADI_WIND NADI_PRES WELLINGTON_LAT WELLINGTON_LON WELLINGTON_WIND WELLINGTON_PRES DS824_LAT DS824_LON DS824_STAGE DS824_WIND DS824_PRES TD9636_LAT TD9636_LON TD9636_STAGE TD9636_WIND TD9636_PRES TD9635_LAT TD9635_LON TD9635_WIND TD9635_PRES TD9635_ROCI NEUMANN_LAT NEUMANN_LON NEUMANN_CLASS NEUMANN_WIND NEUMANN_PRES MLC_LAT MLC_LON MLC_CLASS MLC_WIND MLC_PRES USA_GUST BOM_GUST BOM_GUST_PER REUNION_GUST REUNION_GUST_PER USA_SEAHGT USA_SEARAD_NE USA_SEARAD_SE USA_SEARAD_SW USA_SEARAD_NW STORM_SPEED STORM_DIR
1896070S27080 1896 7 SI MM NOT_NAMED 1896-03-10 00:00:00 TS -26.7000 80.2000 main 2388 2383 _________O____ -1 -26.7000 80.2000 TC 11 191
1896070S27080 1896 7 SI MM NOT_NAMED 1896-03-10 03:00:00 TS -27.2326 80.0828 main 2391 2387 _________P____ -1 -27.2326 80.0828 TC 11 189
1896070S27080 1896 7 SI MM NOT_NAMED 1896-03-10 06:00:00 TS -27.8000 80.0000 main 2399 2399 _________O____ -1 -27.8000 80.0000 TC 12 185
1896070S27080 1896 7 SI MM NOT_NAMED 1896-03-10 09:00:00 TS -28.4150 79.9774 main 2417 2377 _________P____ -1 -28.4150 79.9774 TC 12 179
1896070S27080 1896 7 SI MM NOT_NAMED 1896-03-10 12:00:00 TS -29.0000 80.0000 main 2377 2335 _________O____ -1 -29.0000 80.0000 TC 11 177
1896070S27080 1896 7 SI MM NOT_NAMED 1896-03-10 15:00:00 TS -29.4725 80.0425 main 2324 2285 _________P____ -1 -29.4725 80.0425 TC 9 175
1896070S27080 1896 7 SI MM NOT_NAMED 1896-03-10 18:00:00 TS -29.9000 80.1000 main 2285 2242 _________O____ -1 -29.9000 80.1000 TC 9 174
1896070S27080 1896 7 SI MM NOT_NAMED 1896-03-10 21:00:00 TS -30.3350 80.1427 main 2242 2192 _________P____ -1 -30.3350 80.1427 TC 9 175
1896070S27080 1896 7 SI MM NOT_NAMED 1896-03-11 00:00:00 TS -30.8000 80.2000 main 2192 2143 _________O____ -1 -30.8000 80.2000 TC 10 173
1896070S27080 1896 7 SI MM NOT_NAMED 1896-03-11 03:00:00 TS -31.3350 80.2851 main 2143 2083 _________P____ -1 -31.3350 80.2851 TC 11 171
1896070S27080 1896 7 SI MM NOT_NAMED 1896-03-11 06:00:00 TS -31.9000 80.4000 main 2083 2034 _________O____ -1 -31.9000 80.4000 TC 12 169
1896070S27080 1896 7 SI MM NOT_NAMED 1896-03-11 09:00:00 TS -32.4725 80.5498 main 2024 1979 _________P____ -1 -32.4725 80.5498 TC 11 167
1896070S27080 1896 7 SI MM NOT_NAMED 1896-03-11 12:00:00 TS -33.0000 80.7000 main 1979 1941 _________O____ -1 -33.0000 80.7000 TC 10 168
1896070S27080 1896 7 SI MM NOT_NAMED 1896-03-11 15:00:00 TS -33.4224 80.8004 main 1941 1904 _________P____ -1 -33.4224 80.8004 TC 8 168
1896070S27080 1896 7 SI MM NOT_NAMED 1896-03-11 18:00:00 TS -33.8000 80.9000 main 1904 1877 _________O____ -1 -33.8000 80.9000 TC 8 165
1896070S27080 1896 7 SI MM NOT_NAMED 1896-03-11 21:00:00 TS -34.1700 81.0354 main 1867 1834 _________P____ -1 -34.1700 81.0354 TC 8 163
1896070S27080 1896 7 SI MM NOT_NAMED 1896-03-12 00:00:00 TS -34.6000 81.2000 main 1834 1792 _________O____ -1 -34.6000 81.2000 TC 11 164
1896070S27080 1896 7 SI MM NOT_NAMED 1896-03-12 03:00:00 TS -35.1775 81.3851 main 1782 1731 _________P____ -1 -35.1775 81.3851 TC 12 165
1896070S27080 1896 7 SI MM NOT_NAMED 1896-03-12 06:00:00 TS -35.8000 81.6000 main 1731 1690 _________O____ -1 -35.8000 81.6000 TC 12 163
1896070S27080 1896 7 SI MM NOT_NAMED 1896-03-12 09:00:00 TS -36.3650 81.8427 main 1681 1646 _________P____ -1 -36.3650 81.8427 TC 12 160
1896070S27080 1896 7 SI MM NOT_NAMED 1896-03-12 12:00:00 TS -36.9000 82.1000 main 1646 1608 _________O____ -1 -36.9000 82.1000 TC 11 159
1896070S27080 1896 7 SI MM NOT_NAMED 1896-03-12 15:00:00 TS -37.4074 82.3504 main 1612 1575 _________P____ -1 -37.4074 82.3504 TC 11 158
1896070S27080 1896 7 SI MM NOT_NAMED 1896-03-12 18:00:00 TS -37.9000 82.6000 main 1575 1539 _________O____ -1 -37.9000 82.6000 TC 11 158
1896070S27080 1896 7 SI MM NOT_NAMED 1896-03-12 21:00:00 TS -38.3976 82.8493 main 1539 1510 _________P____ -1 -38.3976 82.8493 TC 11 159
1896070S27080 1896 7 SI MM NOT_NAMED 1896-03-13 00:00:00 TS -38.9000 83.1000 main 1510 _________O____ -1 -38.9000 83.1000 TC 11 159

About IBTrACS Database

This database is a web-friendly format of International Best Track Archive for Climate Stewardship (IBTrACS), a global best track data archive curated by NOAA dating back to 1842.

Updated: 2021-10-19